^^

Flughafenwetter in der weiteren Umgebung

 

EDVE - Braunschweig, Germany
Entfernung von Station: N 5 km
Aktualisierung: 21.07.2018 09:20
Klar
Klar
 Wind von O
Wind: O 13 km/h
Temperatur: 23°C
Taupunkt: 8°C
Luftfeuchte: 38%
Luftdruck: 1012 hPa
Zusammenfassung: Klar
Sicht: mehr als 10 km
2018/07/21 07:20 EDVE 210720Z 09007KT CAVOK 23/08 Q1012
ETHC - Celle (ger-Army), Germany
Entfernung von Station: NW 51 km
Aktualisierung: 21.07.2018 09:20
stark bewölkt
stark bewölkt
 Wind von ONO
Wind: ONO 13 km/h
Temperatur: 21°C
Taupunkt: 9°C
Luftfeuchte: 46%
Luftdruck: 1012 hPa
Wolken: stark bewölkt
Sicht: 10 km
Wolken Details: leicht bewölkt 2743 m
leicht bewölkt 3048 m
stark bewölkt 7010 m
2018/07/21 07:20 ETHC 210720Z 06007KT 9999 FEW090 SCT100 BKN230 21/09 Q1012 BLACKBLU+
 
EDDV - Hannover, Germany
Entfernung von Station: WNW 62 km
Aktualisierung: 21.07.2018 09:20
Klar
Klar
 Wind von O
Wind: O 15 km/h
Temperatur: 20°C
Taupunkt: 8°C
Luftfeuchte: 46%
Luftdruck: 1012 hPa
Zusammenfassung: Klar
Sicht: mehr als 10 km
2018/07/21 07:20 EDDV 210720Z 09008KT CAVOK 20/08 Q1012 NOSIG
ETHS - Fassberg (ger-Af, Germany
Entfernung von Station: NNW 75 km
Aktualisierung: 21.07.2018 09:20
stark bewölkt
stark bewölkt
 Wind von O
Wind: O 13 km/h
Temperatur: 20°C
Taupunkt: 8°C
Luftfeuchte: 46%
Luftdruck: 1012 hPa
Wolken: stark bewölkt
Sicht: 10 km
Wolken Details: stark bewölkt 2591 m
stark bewölkt 7315 m
2018/07/21 07:20 ETHS 210720Z 09007KT 9999 BKN085 BKN240 20/08 Q1012 BLU
 
EDBC - Cochstedt Arpt, Germany
Entfernung von Station: SO 76 km
Aktualisierung: 24.07.2017 17:20
nicht aktuell
leichter Regen, stark bewölkt
leichter Regen, stark bewölkt
 Wind von N
Wind: N 11 km/h
Temperatur: 16°C
Taupunkt: 16°C
Luftfeuchte: 100%
Luftdruck: 1007 hPa
Zusammenfassung: Nieselregen
Wolken: stark bewölkt
Sicht: 10 km
Wolken Details: leicht bewölkt 914 m
stark bewölkt 1981 m
2017/07/24 15:20 EDBC 241520Z 35006KT 9999 -RA SCT030 BKN065 16/16 Q1007
ETNW - Wunstorf (ger-Af, Germany
Entfernung von Station: WNW 79 km
Aktualisierung: 21.07.2018 09:20
stark bewölkt
stark bewölkt
 Wind von O
Wind: O 13 km/h
Temperatur: 21°C
Taupunkt: 9°C
Luftfeuchte: 46%
Luftdruck: 1012 hPa
Wolken: stark bewölkt
Sicht: 10 km
Wolken Details: stark bewölkt 3048 m
2018/07/21 07:20 ETNW 210720Z 09007KT 9999 BKN100 21/09 Q1012 BLU
 
ETHB - Buckeburg(Ger-Ar, Germany
Entfernung von Station: W 101 km
Aktualisierung: 21.07.2018 09:20

 Wind von O
Wind: O 6 km/h
Temperatur: 20°C
Taupunkt: 10°C
Luftfeuchte: 53%
Luftdruck: 1011 hPa
Sicht: 10 km
2018/07/21 07:20 ETHB 210720Z AUTO 09003KT 9999 // ////// 20/10 Q1011 ///
ETGQ - Rotenburg, Germany
Entfernung von Station: NW 125 km
Aktualisierung: 10.10.2016 06:20
nicht aktuell

 Wind von veränderlich
Wind: veränderlich 0 km/h
Temperatur: 4°C
Taupunkt: 3°C
Luftfeuchte: 93%
Luftdruck: 1025 hPa
2016/10/10 04:20 ETGQ 100420Z AUTO /////KT //// // ////// 04/03 Q1025 ///
 
EDVK - Kassel/Calden, Germany
Entfernung von Station: SW 128 km
Aktualisierung: 21.07.2018 09:20
Klar
Klar
 Wind von NW
Wind: NW 9 km/h
Temperatur: 21°C
Taupunkt: 10°C
Luftfeuchte: 50%
Luftdruck: 1011 hPa
Zusammenfassung: Klar
Sicht: mehr als 10 km
2018/07/21 07:20 EDVK 210720Z 32005KT CAVOK 21/10 Q1011
EDDW - Bremen, Germany
Entfernung von Station: NW 145 km
Aktualisierung: 21.07.2018 09:20
leichter Regen, Schauer, stark bewölkt
leichter Regen, Schauer, stark bewölkt
 Wind von O
Wind: O 13 km/h
Temperatur: 20°C
Taupunkt: 9°C
Luftfeuchte: 49%
Luftdruck: 1011 hPa
Zusammenfassung: leichter Regen, Schauer
Wolken: stark bewölkt
Sicht: 10 km
Wolken Details: leicht bewölkt 1829 m
stark bewölkt 2896 m
2018/07/21 07:20 EDDW 210720Z 10007KT 9999 -SHRA SCT060CB BKN095 20/09 Q1011 NOSIG
 
EDDE - Erfurt, Germany
Entfernung von Station: SSO 148 km
Aktualisierung: 21.07.2018 09:20
Klar
Klar
 Wind von NNO
Wind: NNO 7 km/h
Temperatur: 20°C
Taupunkt: 10°C
Luftfeuchte: 53%
Luftdruck: 1011 hPa
Zusammenfassung: Klar
Sicht: mehr als 10 km
2018/07/21 07:20 EDDE 210720Z 02004KT 340V060 CAVOK 20/10 Q1011 NOSIG
EDLP - Paderborn, Germany
Entfernung von Station: WSW 135 km
Aktualisierung: 21.07.2018 09:20
Klar
Klar
 Wind von veränderlich
Wind: veränderlich 4 km/h
Temperatur: 19°C
Taupunkt: 14°C
Luftfeuchte: 73%
Luftdruck: 1012 hPa
Zusammenfassung: Klar
Sicht: mehr als 10 km
2018/07/21 07:20 EDLP 210720Z VRB02KT CAVOK 19/14 Q1012
 
EDHI - Hamburg/Finkenwe, Germany
Entfernung von Station: NNW 148 km
Aktualisierung: 21.07.2018 09:20
leicht bewölkt
leicht bewölkt
 Wind von veränderlich
Wind: veränderlich 9 km/h
Temperatur: 21°C
Taupunkt: 9°C
Luftfeuchte: 46%
Luftdruck: 1013 hPa
Wolken: leicht bewölkt
Sicht: 10 km
Wolken Details: leicht bewölkt 2591 m
2018/07/21 07:20 EDHI 210720Z AUTO VRB05KT 9999 // SCT085/// 21/09 Q1013
EDDP - Leipzig/Schkeudi, Germany
Entfernung von Station: SO 149 km
Aktualisierung: 21.07.2018 09:20
Klar
Klar
 Wind von O
Wind: O 19 km/h
Temperatur: 24°C
Taupunkt: 9°C
Luftfeuchte: 39%
Luftdruck: 1011 hPa
Zusammenfassung: Klar
Sicht: mehr als 10 km
2018/07/21 07:20 EDDP 210720Z 08010KT 040V110 CAVOK 24/09 Q1011 NOSIG
 
EDDP - Leipzig/Halle, Germany
Entfernung von Station: SO 149 km
Aktualisierung: 21.07.2018 09:20
Klar
Klar
 Wind von O
Wind: O 19 km/h
Temperatur: 24°C
Taupunkt: 9°C
Luftfeuchte: 39%
Luftdruck: 1011 hPa
Zusammenfassung: Klar
Sicht: mehr als 10 km
2018/07/21 07:20 EDDP 210720Z 08010KT 040V110 CAVOK 24/09 Q1011 NOSIG
EDOP - Schwerin-Parchim, Germany
Entfernung von Station: NNO 153 km
Aktualisierung: 15.07.2018 03:50
nicht aktuell
leicht bewölkt
leicht bewölkt
 Wind von SW
Wind: SW 4 km/h
Temperatur: 12°C
Taupunkt: 11°C
Luftfeuchte: 94%
Luftdruck: 1018 hPa
Wolken: leicht bewölkt
Sicht: 10 km
Wolken Details: leicht bewölkt 1219 m
2018/07/15 01:50 EDOP 150150Z 23002KT 9999 FEW040 12/11 Q1018
 
ETND - Diepholz (ger-Af, Germany
Entfernung von Station: WNW 153 km
Aktualisierung: 20.07.2018 11:20
nicht aktuell
stark bewölkt
stark bewölkt
 Wind von O
Wind: O 11 km/h
Temperatur: 23°C
Taupunkt: 10°C
Luftfeuchte: 44%
Luftdruck: 1014 hPa
Wolken: stark bewölkt
Sicht: 10 km
Wolken Details: stark bewölkt 9144 m
2018/07/20 09:20 ETND 200920Z 08006KT 9999 BKN300 23/10 Q1014 BLU+
EDDH - Hamburg, Germany
Entfernung von Station: NNW 154 km
Aktualisierung: 21.07.2018 09:20
Klar
Klar
 Wind von O
Wind: O 11 km/h
Temperatur: 21°C
Taupunkt: 9°C
Luftfeuchte: 46%
Luftdruck: 1013 hPa
Zusammenfassung: Klar
Sicht: mehr als 10 km
2018/07/21 07:20 EDDH 210720Z 09006KT 060V120 CAVOK 21/09 Q1013 NOSIG
 
ETHF - Fritzlar (ger-Ar, Germany
Entfernung von Station: SW 156 km
Aktualisierung: 21.07.2018 09:20
leicht bewölkt
leicht bewölkt
 Wind von WNW
Wind: WNW 7 km/h
Temperatur: 22°C
Taupunkt: 12°C
Luftfeuchte: 53%
Luftdruck: 1011 hPa
Wolken: leicht bewölkt
Sicht: 10 km
Wolken Details: leicht bewölkt 1219 m
leicht bewölkt 7010 m
2018/07/21 07:20 ETHF 210720Z 30004KT 9999 FEW040 SCT230 22/12 Q1011 BLU+
EDHL - Luebeck, Germany
Entfernung von Station: N 178 km
Aktualisierung: 21.07.2018 09:20
Klar
Klar
 Wind von veränderlich
Wind: veränderlich 4 km/h
Temperatur: 21°C
Taupunkt: 12°C
Luftfeuchte: 57%
Luftdruck: 1013 hPa
Zusammenfassung: Klar
Sicht: mehr als 10 km
2018/07/21 07:20 EDHL 210720Z VRB02KT CAVOK 21/12 Q1013
 
ETSH - Holzdorf, Germany
Entfernung von Station: OSO 188 km
Aktualisierung: 21.07.2018 09:20
leicht bewölkt
leicht bewölkt
 Wind von ONO
Wind: ONO 13 km/h
Temperatur: 23°C
Taupunkt: 11°C
Luftfeuchte: 47%
Luftdruck: 1012 hPa
Wolken: leicht bewölkt
Sicht: 10 km
Wolken Details: leicht bewölkt 10668 m
2018/07/21 07:20 ETSH 210720Z 06007KT 9999 SCT350 23/11 Q1012 BLU+
EDDT - Berlin-Tegel, Germany
Entfernung von Station: ONO 190 km
Aktualisierung: 21.07.2018 09:20
Klar
Klar
 Wind von O
Wind: O 13 km/h
Temperatur: 22°C
Taupunkt: 11°C
Luftfeuchte: 50%
Luftdruck: 1013 hPa
Zusammenfassung: Klar
Sicht: mehr als 10 km
2018/07/21 07:20 EDDT 210720Z 09007KT 060V120 CAVOK 22/11 Q1013 NOSIG
 
ETNL - Rostock-Laage, Germany
Entfernung von Station: NO 217 km
Aktualisierung: 21.07.2018 09:20
stark bewölkt
stark bewölkt
 Wind von veränderlich
Wind: veränderlich 4 km/h
Temperatur: 21°C
Taupunkt: 13°C
Luftfeuchte: 60%
Luftdruck: 1013 hPa
Wolken: stark bewölkt
Sicht: 10 km
Wolken Details: leicht bewölkt 7315 m
stark bewölkt 9144 m
2018/07/21 07:20 ETNL 210720Z VRB02KT 9999 SCT240 BKN300 21/13 Q1013 BLU+
EDLW - Dortmund, Germany
Entfernung von Station: WSW 217 km
Aktualisierung: 21.07.2018 09:20
Klar
Klar
 Wind von SSW
Wind: SSW 7 km/h
Temperatur: 20°C
Taupunkt: 14°C
Luftfeuchte: 69%
Luftdruck: 1011 hPa
Zusammenfassung: Klar
Sicht: mehr als 10 km
2018/07/21 07:20 EDLW 210720Z 20004KT 160V240 CAVOK 20/14 Q1011
 
EDDK - Koeln/Bonn, Germany
Entfernung von Station: WSW 282 km
Aktualisierung: 21.07.2018 09:20
Klar
Klar
 Wind von veränderlich
Wind: veränderlich 4 km/h
Temperatur: 20°C
Taupunkt: 12°C
Luftfeuchte: 60%
Luftdruck: 1012 hPa
Zusammenfassung: Klar
Sicht: mehr als 10 km
2018/07/21 07:20 EDDK 210720Z VRB02KT CAVOK 20/12 Q1012 NOSIG
EDDL - Düsseldorf, Germany
Entfernung von Station: WSW 282 km
Aktualisierung: 21.07.2018 09:20
Klar
Klar
 Wind von WNW
Wind: WNW 7 km/h
Temperatur: 23°C
Taupunkt: 15°C
Luftfeuchte: 61%
Luftdruck: 1011 hPa
Zusammenfassung: Klar
Sicht: mehr als 10 km
2018/07/21 07:20 EDDL 210720Z 29004KT 250V330 CAVOK 23/15 Q1011 NOSIG
 
EDDF - Frankfurt Main, Germany
Entfernung von Station: SSW 285 km
Aktualisierung: 21.07.2018 09:20
Klar
Klar
 Wind von NW
Wind: NW 13 km/h
Temperatur: 23°C
Taupunkt: 13°C
Luftfeuchte: 53%
Luftdruck: 1011 hPa
Zusammenfassung: Klar
Sicht: mehr als 10 km
2018/07/21 07:20 EDDF 210720Z 31007KT 270V340 CAVOK 23/13 Q1011 NOSIG
EDDS - Stuttgart, Germany
Entfernung von Station: SSW 413 km
Aktualisierung: 21.07.2018 09:20
leichter Regen, stark bewölkt
leichter Regen, stark bewölkt
 Wind von veränderlich
Wind: veränderlich 2 km/h
Temperatur: 19°C
Taupunkt: 16°C
Luftfeuchte: 83%
Luftdruck: 1013 hPa
Zusammenfassung: Nieselregen
Wolken: stark bewölkt
Sicht: 10 km
Wolken Details: leicht bewölkt 1189 m
stark bewölkt 1585 m
2018/07/21 07:20 EDDS 210720Z VRB01KT 9999 -RA FEW039 BKN052 19/16 Q1013 NOSIG
 
EDDR - Saarbrücken, Germany
Entfernung von Station: SW 418 km
Aktualisierung: 21.07.2018 09:20
Klar
Klar
 Wind von S
Wind: S 7 km/h
Temperatur: 18°C
Taupunkt: 16°C
Luftfeuchte: 88%
Luftdruck: 1012 hPa
Zusammenfassung: Klar
Sicht: mehr als 10 km
2018/07/21 07:20 EDDR 210720Z 18004KT CAVOK 18/16 Q1012 NOSIG
EDDM - München, Germany
Entfernung von Station: SSO 445 km
Aktualisierung: 21.07.2018 09:20
Rain showers, stark bewölkt
Rain showers, stark bewölkt
 Wind von W
Wind: W 17 km/h
Temperatur: 17°C
Taupunkt: 16°C
Luftfeuchte: 94%
Luftdruck: 1013 hPa
Zusammenfassung: Rain Showers
Wolken: stark bewölkt
Sicht: 9 km
Wolken Details: leicht bewölkt 366 m
leicht bewölkt 762 m
stark bewölkt 1829 m
2018/07/21 07:20 EDDM 210720Z 26009KT 9000 SHRA FEW012 SCT025TCU BKN060 17/16 Q1013 NOSIG
 
LOWI - Innsbruck, Austria
Entfernung von Station: WSW 566 km
Aktualisierung: 21.07.2018 09:20
leichter Regen, Schauer, stark bewölkt
leichter Regen, Schauer, stark bewölkt
 Wind von W
Wind: W 17 km/h
Temperatur: 17°C
Taupunkt: 15°C
Luftfeuchte: 88%
Luftdruck: 1014 hPa
Zusammenfassung: leichter Regen, Schauer
Wolken: stark bewölkt
Sicht: 10 km
Wolken Details: leicht bewölkt 152 m
leicht bewölkt 1219 m
stark bewölkt 2134 m
2018/07/21 07:20 LOWI 210720Z 28009KT 9999 -SHRA FEW005 SCT040 BKN070 17/15 Q1014 TEMPO TL0800 SHRA
Besucherstatistik
Besucher gesamt: 1.098.832
Besucher heute: 368
Besucher gestern: 1.219
gerade online: 18
aufrufe diese Seite: 4.986
counter Statistiken